Time;durP1;ratioP1;P1;durP2;ratioP2;P2;SDS_P1;SDS_P2;PMS_P1;PMS_P2;Temp;Humidity;BMP_temperature;BMP_pressure;BME280_temperature;BME280_humidity;BME280_pressure;Samples;Min_cycle;Max_cycle;Signal;HPM_P1;HPM_P2
2021/12/07 00:02:07;;;;;;;17.98;10.57;;;2.30;99.90;;;;;;5007205;28;20022;-74
2021/12/07 00:04:35;;;;;;;20.77;10.90;;;2.30;99.70;;;;;;5003702;28;20045;-74
2021/12/07 00:07:01;;;;;;;19.92;10.07;;;2.30;99.90;;;;;;5011183;28;20036;-74
2021/12/07 00:09:27;;;;;;;20.63;10.52;;;2.40;99.90;;;;;;5005633;28;21003;-75
2021/12/07 00:12:04;;;;;;;18.03;10.37;;;2.30;99.50;;;;;;5009127;28;20040;-74
2021/12/07 00:14:39;;;;;;;19.43;10.50;;;2.30;99.30;;;;;;5003711;28;20030;-74
2021/12/07 00:17:06;;;;;;;20.08;10.60;;;2.30;98.70;;;;;;5013006;28;20021;-74
2021/12/07 00:19:33;;;;;;;16.73;9.27;;;2.30;98.50;;;;;;5020154;28;20379;-74
2021/12/07 00:22:07;;;;;;;17.63;9.23;;;2.40;98.20;;;;;;5009747;28;20080;-74
2021/12/07 00:24:33;;;;;;;18.83;9.43;;;2.20;98.40;;;;;;5009834;28;20110;-74
2021/12/07 00:26:58;;;;;;;18.97;9.13;;;2.30;98.40;;;;;;5023240;28;20446;-74
2021/12/07 00:29:27;;;;;;;19.20;9.00;;;2.30;98.40;;;;;;4999578;28;20034;-74
2021/12/07 00:32:14;;;;;;;18.40;9.27;;;2.30;98.70;;;;;;5009300;28;20044;-74
2021/12/07 00:37:48;;;;;;;18.70;9.68;;;2.30;98.70;;;;;;5004247;28;20116;-74
2021/12/07 00:40:18;;;;;;;17.23;9.57;;;2.30;98.60;;;;;;5011857;28;20048;-74
2021/12/07 00:42:45;;;;;;;16.88;8.32;;;2.30;98.40;;;;;;5010675;28;20076;-75
2021/12/07 00:45:18;;;;;;;15.85;8.35;;;2.30;98.10;;;;;;5026060;28;20021;-74
2021/12/07 00:48:05;;;;;;;17.50;9.43;;;2.30;98.60;;;;;;5009932;28;20097;-74
2021/12/07 00:50:35;;;;;;;18.92;9.65;;;2.40;98.50;;;;;;5007539;28;20068;-74
2021/12/07 00:53:09;;;;;;;16.38;8.85;;;2.30;98.30;;;;;;5009239;28;20037;-74
2021/12/07 00:55:43;;;;;;;17.13;9.13;;;2.30;98.20;;;;;;5007469;28;20707;-74
2021/12/07 00:58:21;;;;;;;15.93;9.13;;;2.30;98.60;;;;;;5023012;28;20037;-73
2021/12/07 01:00:54;;;;;;;16.75;9.30;;;2.30;98.50;;;;;;5010407;28;20025;-74
2021/12/07 01:03:23;;;;;;;18.05;9.50;;;2.30;98.10;;;;;;5000508;28;20033;-75
2021/12/07 01:05:54;;;;;;;15.63;8.45;;;2.30;98.20;;;;;;5010268;28;20029;-74
2021/12/07 01:24:44;;;;;;;14.55;8.88;;;2.30;98.20;;;;;;5007430;28;20028;-74
2021/12/07 01:27:15;;;;;;;18.92;9.05;;;2.30;97.80;;;;;;5008063;28;20056;-74
2021/12/07 01:30:00;;;;;;;18.55;9.45;;;2.30;97.50;;;;;;5019613;28;20028;-74
2021/12/07 01:59:35;;;;;;;18.00;8.50;;;2.10;97.60;;;;;;5003392;28;20403;-74
2021/12/07 02:02:08;;;;;;;16.60;9.00;;;2.10;97.30;;;;;;5006002;28;20060;-74
2021/12/07 02:04:35;;;;;;;16.88;9.13;;;2.10;97.60;;;;;;5020827;28;20479;-73
2021/12/07 02:07:07;;;;;;;17.77;9.27;;;2.10;97.30;;;;;;5028124;28;20044;-74
2021/12/07 02:09:38;;;;;;;17.13;7.93;;;2.10;97.50;;;;;;5006604;28;20022;-74
2021/12/07 02:12:07;;;;;;;20.88;9.95;;;2.10;97.50;;;;;;5009125;28;20018;-76
2021/12/07 02:14:36;;;;;;;19.35;9.60;;;2.10;97.40;;;;;;5000244;28;20118;-74
2021/12/07 02:17:12;;;;;;;18.25;8.98;;;2.10;97.30;;;;;;5010007;28;20105;-74
2021/12/07 02:19:40;;;;;;;17.38;8.93;;;2.10;97.30;;;;;;5006541;28;20018;-74
2021/12/07 02:22:09;;;;;;;16.90;9.32;;;2.10;97.30;;;;;;5007992;28;20017;-74
2021/12/07 02:24:35;;;;;;;21.83;9.93;;;2.10;97.40;;;;;;5019793;28;20029;-74
2021/12/07 02:27:07;;;;;;;20.30;10.13;;;2.10;97.00;;;;;;5007390;28;20030;-75
2021/12/07 02:29:34;;;;;;;17.98;9.48;;;2.10;97.20;;;;;;4999807;28;20114;-74
2021/12/07 02:32:03;;;;;;;22.00;9.95;;;2.10;97.10;;;;;;5004262;28;20030;-74
2021/12/07 02:34:36;;;;;;;18.15;9.55;;;2.10;97.40;;;;;;5003856;28;20434;-75
2021/12/07 02:37:03;;;;;;;17.77;9.43;;;2.10;97.60;;;;;;5004965;28;20017;-74
2021/12/07 02:39:34;;;;;;;19.60;9.90;;;2.10;97.60;;;;;;5003429;28;20024;-74
2021/12/07 02:42:01;;;;;;;16.90;9.50;;;2.10;97.20;;;;;;5024077;28;20109;-74
2021/12/07 02:44:28;;;;;;;18.23;9.27;;;2.10;97.40;;;;;;5004496;28;20101;-74
2021/12/07 02:46:54;;;;;;;19.92;10.07;;;2.10;97.70;;;;;;5023170;28;20029;-74
2021/12/07 02:49:22;;;;;;;21.63;10.97;;;2.10;97.30;;;;;;5003053;28;20033;-74
2021/12/07 02:51:48;;;;;;;19.77;10.15;;;2.10;97.60;;;;;;5007217;28;20080;-74
2021/12/07 02:54:17;;;;;;;20.50;9.07;;;2.10;97.80;;;;;;5008093;28;20079;-74
2021/12/07 02:56:44;;;;;;;23.00;9.65;;;2.10;98.00;;;;;;5004379;28;20048;-73
2021/12/07 02:59:10;;;;;;;20.38;10.35;;;2.10;97.30;;;;;;5010512;28;20017;-74
2021/12/07 03:01:43;;;;;;;18.48;10.05;;;2.10;96.80;;;;;;5003183;28;20029;-74
2021/12/07 03:04:16;;;;;;;21.13;9.65;;;2.10;96.80;;;;;;5003665;28;20028;-74
2021/12/07 03:07:38;;;;;;;19.38;9.95;;;2.00;97.10;;;;;;5003673;28;20049;-74
2021/12/07 03:26:21;;;;;;;17.35;9.02;;;2.00;97.30;;;;;;5007744;28;20148;-74
2021/12/07 03:28:50;;;;;;;19.55;9.18;;;2.10;97.30;;;;;;5012023;28;20021;-74
2021/12/07 03:31:17;;;;;;;17.38;8.95;;;2.00;97.20;;;;;;5006587;28;20659;-75
2021/12/07 03:33:48;;;;;;;18.83;10.20;;;2.00;97.50;;;;;;5023648;28;20633;-74
2021/12/07 03:36:17;;;;;;;19.10;9.90;;;2.00;97.20;;;;;;5006050;28;20125;-74
2021/12/07 03:38:50;;;;;;;18.42;9.60;;;2.00;97.30;;;;;;5023469;28;20028;-74
2021/12/07 03:41:18;;;;;;;20.38;10.23;;;2.00;97.20;;;;;;5009404;28;20022;-77
2021/12/07 03:43:46;;;;;;;19.75;10.45;;;2.10;97.30;;;;;;5007835;28;20025;-74
2021/12/07 03:46:18;;;;;;;17.83;9.73;;;2.00;97.70;;;;;;5009649;28;20402;-74
2021/12/07 03:48:45;;;;;;;17.00;8.82;;;2.00;97.60;;;;;;5007487;28;20029;-74
2021/12/07 03:51:12;;;;;;;19.17;9.40;;;2.00;97.30;;;;;;5011298;28;20061;-74
2021/12/07 03:53:41;;;;;;;19.33;10.10;;;2.00;97.40;;;;;;5009032;28;20037;-74
2021/12/07 03:56:08;;;;;;;20.40;10.55;;;2.00;97.60;;;;;;5008224;28;20053;-74
2021/12/07 03:58:35;;;;;;;18.95;9.90;;;2.00;97.40;;;;;;5008556;28;20025;-74
2021/12/07 04:01:11;;;;;;;24.83;11.32;;;2.00;97.70;;;;;;5012323;28;20034;-74
2021/12/07 04:03:37;;;;;;;22.48;11.32;;;2.00;97.80;;;;;;5004257;28;20026;-74
2021/12/07 04:06:06;;;;;;;21.00;10.35;;;2.00;97.80;;;;;;5012339;28;20387;-74
2021/12/07 04:08:34;;;;;;;21.92;11.20;;;2.00;97.50;;;;;;5029576;28;20777;-74
2021/12/07 04:11:09;;;;;;;20.20;10.00;;;2.10;97.70;;;;;;5004323;28;20037;-74
2021/12/07 04:13:36;;;;;;;20.00;9.48;;;2.10;97.60;;;;;;5002193;28;20022;-74
2021/12/07 04:16:07;;;;;;;18.48;9.43;;;2.00;97.40;;;;;;5007759;28;20022;-74
2021/12/07 04:18:35;;;;;;;22.58;10.77;;;2.00;97.40;;;;;;5021655;28;20075;-74
2021/12/07 04:21:02;;;;;;;20.95;10.23;;;2.00;97.70;;;;;;5013418;28;20411;-74
2021/12/07 04:23:31;;;;;;;21.88;10.23;;;2.00;97.70;;;;;;5005033;28;20741;-75
2021/12/07 04:25:57;;;;;;;20.17;11.13;;;2.00;97.90;;;;;;5013020;28;20026;-74
2021/12/07 04:28:23;;;;;;;22.88;11.40;;;2.00;98.10;;;;;;5003590;28;20045;-74
2021/12/07 04:30:50;;;;;;;20.23;11.10;;;2.00;97.90;;;;;;5008691;28;20509;-74
2021/12/07 04:33:22;;;;;;;;;;;2.00;97.70;;;;;;5007534;28;20052;-74
2021/12/07 04:35:49;;;;;;;23.45;10.43;;;2.00;97.40;;;;;;5002248;28;19905;-74
2021/12/07 04:38:18;;;;;;;22.08;9.85;;;1.90;97.60;;;;;;5005840;28;20363;-74
2021/12/07 04:40:44;;;;;;;19.67;10.05;;;1.90;97.80;;;;;;5006599;28;20230;-74
2021/12/07 04:43:11;;;;;;;22.30;10.43;;;1.90;98.00;;;;;;5008386;28;20025;-74
2021/12/07 04:58:55;;;;;;;20.60;10.60;;;1.90;97.70;;;;;;5008190;28;20047;-74
2021/12/07 05:01:25;;;;;;;21.50;10.65;;;1.90;98.00;;;;;;5007544;28;20100;-74
2021/12/07 05:03:54;;;;;;;23.73;11.95;;;1.90;98.10;;;;;;5006322;28;20117;-74
2021/12/07 05:06:23;;;;;;;21.33;10.43;;;1.90;98.30;;;;;;5007679;28;20040;-74
2021/12/07 05:08:56;;;;;;;21.50;11.13;;;1.90;98.00;;;;;;5003749;28;20118;-74
2021/12/07 05:14:17;;;;;;;26.15;11.52;;;1.90;98.20;;;;;;5011145;28;21811;-74
2021/12/07 05:24:54;;;;;;;20.55;10.63;;;1.80;97.70;;;;;;5006948;28;20068;-75
2021/12/07 05:38:24;;;;;;;24.67;11.93;;;1.80;98.20;;;;;;5007065;28;20422;-75
2021/12/07 05:40:50;;;;;;;20.13;10.60;;;1.80;98.40;;;;;;5003812;28;20025;-75
2021/12/07 05:43:23;;;;;;;20.17;10.73;;;1.80;98.40;;;;;;5003668;28;20018;-75
2021/12/07 05:45:52;;;;;;;22.95;11.10;;;1.80;98.00;;;;;;4998985;28;20144;-74
2021/12/07 05:48:19;;;;;;;21.90;11.18;;;1.80;98.20;;;;;;5008960;28;20022;-74
2021/12/07 05:50:47;;;;;;;22.52;11.60;;;1.80;98.40;;;;;;5006215;28;20935;-74
2021/12/07 05:53:16;;;;;;;24.88;12.40;;;1.80;98.30;;;;;;5023984;28;20029;-75
2021/12/07 05:55:45;;;;;;;22.42;11.10;;;1.80;98.60;;;;;;5004639;28;20029;-75
2021/12/07 05:58:19;;;;;;;23.05;11.00;;;1.80;97.60;;;;;;5009234;28;20729;-75
2021/12/07 06:00:46;;;;;;;23.67;11.13;;;1.80;97.80;;;;;;5002313;28;20893;-74
2021/12/07 06:03:15;;;;;;;21.83;10.88;;;1.80;98.20;;;;;;5023278;28;20024;-74
2021/12/07 06:05:46;;;;;;;23.00;11.27;;;1.80;98.10;;;;;;5004620;28;20124;-75
2021/12/07 06:08:14;;;;;;;21.70;11.02;;;1.80;98.30;;;;;;5007054;28;20017;-75
2021/12/07 06:10:40;;;;;;;23.75;11.25;;;1.90;98.30;;;;;;5006693;28;20070;-74
2021/12/07 06:13:06;;;;;;;22.47;12.50;;;1.90;98.30;;;;;;5008402;28;20018;-73
2021/12/07 06:15:36;;;;;;;25.80;11.25;;;1.90;97.90;;;;;;5006472;28;20025;-74
2021/12/07 06:18:06;;;;;;;24.20;12.10;;;1.90;98.20;;;;;;5019675;28;20569;-73
2021/12/07 06:20:37;;;;;;;20.50;10.95;;;1.80;98.00;;;;;;5003112;28;20061;-74
2021/12/07 06:23:03;;;;;;;22.55;11.98;;;1.90;98.30;;;;;;5009852;28;20029;-73
2021/12/07 06:25:35;;;;;;;21.92;10.80;;;1.90;97.60;;;;;;5002064;28;20036;-74
2021/12/07 06:28:04;;;;;;;21.67;10.63;;;1.90;97.90;;;;;;5001981;28;20380;-73
2021/12/07 06:30:32;;;;;;;22.75;12.05;;;2.00;98.30;;;;;;4999604;28;20021;-74
2021/12/07 06:33:00;;;;;;;24.40;11.18;;;2.10;97.50;;;;;;5006663;28;20021;-73
2021/12/07 06:35:26;;;;;;;18.83;10.38;;;2.10;97.30;;;;;;5002936;28;20079;-74
2021/12/07 06:37:52;;;;;;;20.13;10.52;;;2.20;97.30;;;;;;5006234;28;20054;-73
2021/12/07 06:40:21;;;;;;;22.33;11.90;;;2.20;97.50;;;;;;5007628;28;20074;-73
2021/12/07 06:42:47;;;;;;;21.85;11.05;;;2.30;97.50;;;;;;5002113;28;20686;-73
2021/12/07 06:45:17;;;;;;;23.87;11.53;;;2.30;96.80;;;;;;5004196;28;20029;-73
2021/12/07 06:47:44;;;;;;;22.92;10.93;;;2.30;97.00;;;;;;4998435;28;20022;-73
2021/12/07 06:50:12;;;;;;;21.05;10.88;;;2.40;97.20;;;;;;5020325;28;20037;-73
2021/12/07 06:52:39;;;;;;;22.88;11.40;;;2.30;96.50;;;;;;5013985;28;20083;-73
2021/12/07 06:55:06;;;;;;;24.38;13.65;;;2.30;97.00;;;;;;5007402;28;20048;-73
2021/12/07 06:57:32;;;;;;;26.65;12.02;;;2.20;97.20;;;;;;5004734;28;21294;-73
2021/12/07 06:59:57;;;;;;;25.93;11.77;;;2.30;97.40;;;;;;5004150;28;20032;-73
2021/12/07 07:02:24;;;;;;;20.53;11.00;;;2.30;97.30;;;;;;5007817;28;20499;-73
2021/12/07 07:04:51;;;;;;;23.15;11.30;;;2.30;97.20;;;;;;5004580;28;20080;-73
2021/12/07 07:07:24;;;;;;;23.30;11.13;;;2.40;96.60;;;;;;5009279;28;20113;-73
2021/12/07 07:09:51;;;;;;;23.30;11.18;;;2.80;96.70;;;;;;5001685;28;20033;-72
2021/12/07 07:12:17;;;;;;;;;;;3.50;95.10;;;;;;5009916;28;20033;-73
2021/12/07 07:14:51;;;;;;;22.30;11.18;;;4.00;94.00;;;;;;4994877;28;19909;-73
2021/12/07 07:17:17;;;;;;;21.58;10.95;;;4.20;93.70;;;;;;5018356;28;20018;-73
2021/12/07 07:19:45;;;;;;;24.57;11.93;;;4.10;93.00;;;;;;5018472;28;20038;-73
2021/12/07 07:22:11;;;;;;;25.60;12.73;;;4.00;93.10;;;;;;5008416;28;20021;-73
2021/12/07 07:24:42;;;;;;;23.67;11.53;;;3.90;93.50;;;;;;5002329;28;20608;-72
2021/12/07 07:27:16;;;;;;;22.92;11.18;;;4.10;93.30;;;;;;5008489;28;20041;-73
2021/12/07 07:29:43;;;;;;;22.05;11.43;;;4.70;92.50;;;;;;5004212;28;20057;-73
2021/12/07 07:32:09;;;;;;;24.63;11.75;;;5.20;91.00;;;;;;5003119;28;20026;-73
2021/12/07 07:34:35;;;;;;;21.47;11.97;;;5.50;89.70;;;;;;5000599;28;20040;-73
2021/12/07 07:37:05;;;;;;;22.40;10.98;;;5.60;88.50;;;;;;5005165;28;20365;-73
2021/12/07 07:39:32;;;;;;;20.77;11.23;;;5.70;87.80;;;;;;5003586;28;20029;-74
2021/12/07 07:41:58;;;;;;;20.25;10.73;;;5.90;86.80;;;;;;5001762;28;20014;-74
2021/12/07 07:44:25;;;;;;;23.48;11.90;;;5.90;85.80;;;;;;5007913;28;20506;-73
2021/12/07 07:46:52;;;;;;;;;;;6.00;85.80;;;;;;5004911;28;20406;-73
2021/12/07 07:49:18;;;;;;;21.20;11.38;;;6.00;84.60;;;;;;5000287;28;20358;-73
2021/12/07 07:51:47;;;;;;;19.63;10.53;;;5.90;84.90;;;;;;5005310;28;20056;-73
2021/12/07 07:54:12;;;;;;;22.60;12.15;;;6.00;84.20;;;;;;5016667;28;20060;-73
2021/12/07 07:56:40;;;;;;;18.52;10.70;;;6.00;84.40;;;;;;5004766;28;20842;-73
2021/12/07 07:59:06;;;;;;;22.23;11.60;;;6.00;82.60;;;;;;5008338;28;20076;-73
2021/12/07 08:01:35;;;;;;;20.15;11.35;;;6.10;83.00;;;;;;5004019;28;20072;-73
2021/12/07 08:04:04;;;;;;;19.38;10.93;;;6.10;83.10;;;;;;5002149;28;20111;-74
2021/12/07 08:06:41;;;;;;;19.33;10.68;;;6.10;82.40;;;;;;5005722;28;20060;-73
2021/12/07 08:09:08;;;;;;;21.55;11.07;;;6.40;81.30;;;;;;5002350;28;20021;-73
2021/12/07 08:11:37;;;;;;;19.42;10.18;;;6.90;79.90;;;;;;5001510;28;20034;-73
2021/12/07 08:14:03;;;;;;;20.55;11.25;;;7.60;76.70;;;;;;5009910;28;20083;-74
2021/12/07 08:16:29;;;;;;;19.98;11.15;;;8.20;73.20;;;;;;5015474;28;20030;-74
2021/12/07 08:18:55;;;;;;;17.90;10.68;;;8.60;73.80;;;;;;5012546;28;20034;-74
2021/12/07 08:21:23;;;;;;;18.20;10.45;;;9.20;69.70;;;;;;5015639;28;20060;-73
2021/12/07 08:23:49;;;;;;;19.15;10.63;;;10.10;67.00;;;;;;5021960;28;20026;-73
2021/12/07 08:26:18;;;;;;;18.65;10.48;;;11.20;62.70;;;;;;5014734;28;20028;-74
2021/12/07 08:28:45;;;;;;;19.40;11.77;;;12.60;57.40;;;;;;5003713;28;20479;-75
2021/12/07 08:31:18;;;;;;;19.13;11.45;;;13.60;51.90;;;;;;5011942;28;20010;-74
2021/12/07 08:33:44;;;;;;;18.33;11.63;;;14.20;49.90;;;;;;5006102;28;20052;-74
2021/12/07 08:36:11;;;;;;;20.42;12.13;;;14.70;47.50;;;;;;5011287;28;20694;-73
2021/12/07 08:38:37;;;;;;;19.83;12.82;;;15.00;46.50;;;;;;5003196;28;20108;-74
2021/12/07 08:41:12;;;;;;;21.50;14.25;;;15.30;45.60;;;;;;5004054;28;20029;-74
2021/12/07 08:43:40;;;;;;;19.88;13.30;;;15.40;45.40;;;;;;5002464;28;20036;-74
2021/12/07 08:46:14;;;;;;;18.50;12.43;;;15.60;44.60;;;;;;5007597;28;20083;-74
2021/12/07 08:48:41;;;;;;;18.67;12.30;;;15.40;44.60;;;;;;5006050;28;20052;-74
2021/12/07 08:51:13;;;;;;;16.75;12.25;;;15.30;45.10;;;;;;5010721;28;20014;-74
2021/12/07 08:53:49;;;;;;;18.58;12.95;;;15.30;44.50;;;;;;5006464;28;20030;-74
2021/12/07 09:01:47;;;;;;;15.35;11.07;;;15.80;43.00;;;;;;5003541;28;20088;-74
2021/12/07 09:04:20;;;;;;;16.38;11.65;;;15.60;42.80;;;;;;5011653;28;20401;-75
2021/12/07 09:06:48;;;;;;;16.98;11.27;;;15.30;42.70;;;;;;5001203;28;20041;-74
2021/12/07 09:09:14;;;;;;;17.83;12.45;;;14.60;44.40;;;;;;5008930;28;20013;-73
2021/12/07 09:11:42;;;;;;;16.27;11.43;;;13.80;45.30;;;;;;4998535;28;20384;-75
2021/12/07 09:14:13;;;;;;;18.83;12.00;;;12.90;47.30;;;;;;5009875;28;20583;-73
2021/12/07 09:16:42;;;;;;;14.40;10.10;;;12.20;49.70;;;;;;5000588;28;20095;-73
2021/12/07 09:19:08;;;;;;;18.55;12.90;;;12.20;50.40;;;;;;4999170;28;20009;-74
2021/12/07 09:21:34;;;;;;;21.10;13.25;;;12.20;49.90;;;;;;5007519;28;20026;-73
2021/12/07 09:24:01;;;;;;;20.65;12.60;;;11.70;50.90;;;;;;4997501;28;20049;-73
2021/12/07 09:26:27;;;;;;;18.60;11.55;;;11.10;52.70;;;;;;5012125;28;20024;-73
2021/12/07 09:28:52;;;;;;;17.77;11.10;;;10.90;54.70;;;;;;5005294;28;20021;-73
2021/12/07 09:31:18;;;;;;;18.70;12.25;;;10.70;55.30;;;;;;5011700;28;20021;-73
2021/12/07 09:33:44;;;;;;;18.42;11.80;;;11.60;55.40;;;;;;5018035;28;20032;-74
2021/12/07 09:36:13;;;;;;;19.33;11.60;;;12.60;52.20;;;;;;5000286;28;20057;-74
2021/12/07 09:38:40;;;;;;;20.13;11.70;;;13.70;48.70;;;;;;5011001;28;20132;-74
2021/12/07 09:41:08;;;;;;;16.55;10.70;;;14.20;46.40;;;;;;5002455;28;20022;-74
2021/12/07 09:43:34;;;;;;;17.55;11.05;;;14.00;46.10;;;;;;5002748;28;20497;-75
2021/12/07 09:46:00;;;;;;;17.75;11.77;;;14.00;46.20;;;;;;5007661;28;20661;-74
2021/12/07 09:48:26;;;;;;;15.40;10.85;;;14.60;46.40;;;;;;5006812;28;20033;-74
2021/12/07 09:50:55;;;;;;;16.23;10.75;;;15.50;44.60;;;;;;5010617;28;20036;-74
2021/12/07 09:53:24;;;;;;;15.63;10.43;;;16.20;42.30;;;;;;5001729;28;20036;-74
2021/12/07 09:55:53;;;;;;;17.20;10.07;;;16.50;41.60;;;;;;5006523;28;20478;-74
2021/12/07 09:58:23;;;;;;;15.30;10.93;;;16.30;41.40;;;;;;5025411;28;20920;-74
2021/12/07 10:00:50;;;;;;;14.68;10.25;;;16.60;41.50;;;;;;4999933;28;20879;-74
2021/12/07 10:03:23;;;;;;;15.13;10.95;;;17.00;40.70;;;;;;5003695;28;20834;-74
2021/12/07 10:05:52;;;;;;;15.93;10.68;;;17.60;39.30;;;;;;5006644;28;20021;-76
2021/12/07 10:08:18;;;;;;;14.23;9.93;;;18.30;38.00;;;;;;5004392;28;20064;-74
2021/12/07 10:10:48;;;;;;;14.18;10.65;;;17.70;38.10;;;;;;5003204;28;20598;-74
2021/12/07 10:13:15;;;;;;;14.45;10.45;;;16.60;39.70;;;;;;5006517;28;20018;-73
2021/12/07 10:15:43;;;;;;;19.63;11.75;;;14.90;41.70;;;;;;4997896;28;20116;-72
2021/12/07 10:18:12;;;;;;;16.70;11.43;;;13.40;45.40;;;;;;5001695;28;20026;-73
2021/12/07 10:20:56;;;;;;;16.98;10.68;;;12.10;49.10;;;;;;4997586;28;20022;-73
2021/12/07 10:23:36;;;;;;;15.73;10.88;;;10.90;52.80;;;;;;5004378;28;20101;-73
2021/12/07 10:26:13;;;;;;;15.40;10.18;;;10.10;56.30;;;;;;4999128;28;20125;-72
2021/12/07 10:28:43;;;;;;;16.70;10.77;;;9.30;59.50;;;;;;5001964;28;20502;-72
2021/12/07 10:31:29;;;;;;;18.60;10.35;;;8.80;63.50;;;;;;5010104;28;20032;-73
2021/12/07 10:34:11;;;;;;;16.65;10.07;;;8.30;65.80;;;;;;5002243;28;20189;-73
2021/12/07 10:37:09;;;;;;;17.90;10.63;;;8.00;67.90;;;;;;5002493;28;20009;-73
2021/12/07 10:39:40;;;;;;;14.38;9.20;;;7.70;70.10;;;;;;5003445;28;20044;-73
2021/12/07 10:42:10;;;;;;;15.15;9.00;;;7.40;71.80;;;;;;5004713;28;20045;-72
2021/12/07 10:44:39;;;;;;;16.77;10.15;;;7.10;73.50;;;;;;5001087;28;20052;-72
2021/12/07 10:47:09;;;;;;;17.05;10.27;;;6.80;74.30;;;;;;5004761;28;20128;-73
2021/12/07 10:50:00;;;;;;;17.08;10.57;;;6.60;75.80;;;;;;4998335;28;20386;-72
2021/12/07 10:52:28;;;;;;;17.35;10.35;;;6.50;76.70;;;;;;5007951;28;20057;-73
2021/12/07 10:54:59;;;;;;;19.08;10.85;;;6.50;77.40;;;;;;5017390;28;21278;-73
2021/12/07 10:57:34;;;;;;;18.20;11.02;;;6.40;78.60;;;;;;5023014;28;20036;-73
2021/12/07 11:00:11;;;;;;;20.90;11.27;;;6.60;79.10;;;;;;5017676;28;20021;-72
2021/12/07 11:02:42;;;;;;;19.65;11.77;;;6.80;78.10;;;;;;5006263;28;20026;-72
2021/12/07 11:05:15;;;;;;;20.63;11.82;;;7.20;77.10;;;;;;5019855;28;20116;-73
2021/12/07 11:07:43;;;;;;;22.48;12.00;;;7.40;75.60;;;;;;5009045;28;20025;-73
2021/12/07 11:10:21;;;;;;;18.73;10.93;;;7.40;75.70;;;;;;5002185;28;20113;-73
2021/12/07 11:15:28;;;;;;;21.58;11.48;;;6.90;77.10;;;;;;5002745;28;20092;-73
2021/12/07 11:17:57;;;;;;;19.73;11.57;;;6.70;78.10;;;;;;5006092;28;20022;-72
2021/12/07 11:20:26;;;;;;;21.38;11.55;;;6.60;78.80;;;;;;5002407;28;20050;-72
2021/12/07 11:22:57;;;;;;;18.02;10.95;;;6.40;79.50;;;;;;5002079;28;20034;-72
2021/12/07 11:32:00;;;;;;;21.25;11.27;;;6.10;82.20;;;;;;5010298;28;20059;-72
2021/12/07 11:34:30;;;;;;;21.00;11.07;;;6.10;82.10;;;;;;5004374;28;20145;-72
2021/12/07 11:37:04;;;;;;;19.30;10.40;;;6.10;82.50;;;;;;5005082;28;20058;-73
2021/12/07 11:39:38;;;;;;;18.77;11.05;;;6.20;81.90;;;;;;5003308;28;20738;-72
2021/12/07 11:42:06;;;;;;;18.75;10.65;;;6.20;81.60;;;;;;5020865;28;20655;-73
2021/12/07 11:44:35;;;;;;;18.95;10.25;;;6.10;82.30;;;;;;5008420;28;20112;-72
2021/12/07 11:47:03;;;;;;;18.20;10.52;;;6.00;81.50;;;;;;5010080;28;20025;-71
2021/12/07 11:49:32;;;;;;;19.38;10.35;;;6.00;82.60;;;;;;5023966;28;20034;-72
2021/12/07 11:52:01;;;;;;;18.20;9.93;;;6.10;82.70;;;;;;5010233;28;20033;-72
2021/12/07 11:54:37;;;;;;;15.48;9.60;;;6.10;82.70;;;;;;5006105;28;20057;-72
2021/12/07 11:57:05;;;;;;;15.35;9.05;;;6.30;82.20;;;;;;5007034;28;20025;-71
2021/12/07 11:59:31;;;;;;;16.52;8.48;;;6.40;81.50;;;;;;5007396;28;20033;-72
2021/12/07 12:01:58;;;;;;;16.73;9.67;;;6.40;81.40;;;;;;5008537;28;20017;-72
2021/12/07 12:04:24;;;;;;;;;;;6.60;81.40;;;;;;5006974;28;20041;-72
2021/12/07 12:06:55;;;;;;;21.55;9.65;;;6.50;81.30;;;;;;5020886;28;19913;-72
2021/12/07 12:09:23;;;;;;;19.48;10.30;;;6.40;81.90;;;;;;5004343;28;20040;-72
2021/12/07 12:11:54;;;;;;;19.85;10.80;;;6.30;82.80;;;;;;5005544;28;20079;-72
2021/12/07 12:14:44;;;;;;;18.63;11.23;;;6.20;84.70;;;;;;5003485;28;20037;-72
2021/12/07 12:17:28;;;;;;;18.50;10.57;;;5.90;85.80;;;;;;5004619;28;20021;-72
2021/12/07 12:20:22;;;;;;;20.33;11.27;;;5.80;87.20;;;;;;5021138;28;20133;-70
2021/12/07 12:23:07;;;;;;;20.48;11.30;;;5.90;90.70;;;;;;5003915;28;20018;-72
2021/12/07 12:25:35;;;;;;;18.05;10.30;;;5.80;89.00;;;;;;5026577;28;20076;-72
2021/12/07 12:28:00;;;;;;;22.58;11.65;;;5.80;89.40;;;;;;5003789;28;20029;-72
2021/12/07 12:30:36;;;;;;;18.27;10.83;;;5.80;89.70;;;;;;5013390;28;20083;-71
2021/12/07 12:33:10;;;;;;;20.63;11.55;;;5.70;89.70;;;;;;5009588;28;20022;-72
2021/12/07 12:35:42;;;;;;;19.73;11.80;;;5.90;90.10;;;;;;5011414;28;20022;-72
2021/12/07 12:38:29;;;;;;;23.67;13.75;;;5.80;90.20;;;;;;5010633;28;20017;-73
2021/12/07 12:41:00;;;;;;;24.33;12.48;;;5.70;90.60;;;;;;5011903;28;20376;-72
2021/12/07 12:43:51;;;;;;;24.30;12.88;;;5.60;91.00;;;;;;5003842;28;20785;-72
2021/12/07 12:46:28;;;;;;;23.88;12.93;;;5.50;91.60;;;;;;5004875;28;20041;-72
2021/12/07 12:49:01;;;;;;;24.65;14.02;;;5.40;91.90;;;;;;5006392;28;20022;-73
2021/12/07 12:51:31;;;;;;;20.15;12.10;;;5.40;92.10;;;;;;5001908;28;20025;-72
2021/12/07 12:53:59;;;;;;;22.73;12.23;;;5.40;92.30;;;;;;5022388;28;20490;-72
2021/12/07 12:56:36;;;;;;;23.50;12.25;;;5.30;92.50;;;;;;5005261;28;20041;-73
2021/12/07 12:59:09;;;;;;;;;;;5.30;92.70;;;;;;5010237;28;20014;-72
2021/12/07 13:01:41;;;;;;;22.73;11.82;;;5.20;93.10;;;;;;5005417;28;19909;-72
2021/12/07 13:04:12;;;;;;;24.38;12.60;;;5.20;93.10;;;;;;5013743;28;20027;-72
2021/12/07 13:07:45;;;;;;;20.08;11.27;;;5.30;93.10;;;;;;5005256;28;20022;-72
2021/12/07 13:09:58;;;;;;;22.58;12.52;;;5.30;93.00;;;;;;5001494;28;20083;-72
2021/12/07 13:12:26;;;;;;;22.20;10.95;;;5.20;93.20;;;;;;5006759;28;20026;-72
2021/12/07 13:15:00;;;;;;;20.83;11.00;;;5.10;93.30;;;;;;5004992;28;20109;-72
2021/12/07 13:17:45;;;;;;;18.35;10.43;;;5.10;93.70;;;;;;5018637;28;20033;-72
2021/12/07 13:20:33;;;;;;;19.55;10.93;;;5.00;93.50;;;;;;5004640;28;20071;-72
2021/12/07 13:23:13;;;;;;;17.35;9.85;;;4.90;93.90;;;;;;5003331;28;20776;-72
2021/12/07 13:25:46;;;;;;;15.65;8.63;;;4.80;94.20;;;;;;5003170;28;20387;-72
2021/12/07 13:28:25;;;;;;;13.80;8.25;;;4.80;94.20;;;;;;5023678;28;20029;-72
2021/12/07 13:31:09;;;;;;;15.75;8.57;;;4.70;94.40;;;;;;5013885;28;20030;-72
2021/12/07 13:33:55;;;;;;;13.85;8.27;;;4.50;94.70;;;;;;5008249;28;20548;-73
2021/12/07 13:36:43;;;;;;;12.73;7.65;;;4.40;95.40;;;;;;5008452;28;20029;-73
2021/12/07 13:39:16;;;;;;;14.32;8.32;;;4.30;95.60;;;;;;5010711;28;20013;-73
2021/12/07 13:41:54;;;;;;;15.20;7.95;;;4.40;95.60;;;;;;5000066;28;20730;-73
2021/12/07 13:44:20;;;;;;;13.68;7.47;;;4.40;95.60;;;;;;5009395;28;20037;-73
2021/12/07 13:46:55;;;;;;;13.03;7.43;;;4.40;95.60;;;;;;5005225;28;20083;-73
2021/12/07 13:49:29;;;;;;;12.30;7.15;;;4.40;96.00;;;;;;5004598;28;20025;-72
2021/12/07 13:51:57;;;;;;;11.25;6.78;;;4.40;95.70;;;;;;5003106;28;20026;-73
2021/12/07 13:54:23;;;;;;;11.07;6.32;;;4.40;95.70;;;;;;5004605;28;20081;-73
2021/12/07 13:56:52;;;;;;;13.03;6.97;;;4.50;95.70;;;;;;5000008;28;20021;-73
2021/12/07 13:59:22;;;;;;;12.38;6.72;;;4.50;95.80;;;;;;5006347;28;20022;-73
2021/12/07 14:01:53;;;;;;;12.85;7.38;;;4.50;96.00;;;;;;5022243;28;20020;-72
2021/12/07 14:04:24;;;;;;;10.10;5.85;;;4.60;95.90;;;;;;5007901;28;20052;-72
2021/12/07 14:06:53;;;;;;;8.43;5.75;;;4.60;95.60;;;;;;4999337;28;20037;-72
2021/12/07 14:09:21;;;;;;;11.85;6.88;;;4.60;95.50;;;;;;5004964;28;20018;-73
2021/12/07 14:11:56;;;;;;;12.65;5.38;;;4.60;95.40;;;;;;5005960;28;20032;-73
2021/12/07 14:14:25;;;;;;;9.55;6.03;;;4.50;95.30;;;;;;5005752;28;20831;-73
2021/12/07 14:16:55;;;;;;;8.13;5.05;;;4.50;95.50;;;;;;5000389;28;20053;-72
2021/12/07 14:19:23;;;;;;;7.22;5.00;;;4.40;95.70;;;;;;5018588;28;20049;-73
2021/12/07 14:21:57;;;;;;;8.70;5.70;;;4.40;95.90;;;;;;5003602;28;20542;-73
2021/12/07 14:24:28;;;;;;;7.38;5.00;;;4.30;96.00;;;;;;5019225;28;21440;-72
2021/12/07 14:26:55;;;;;;;8.73;5.22;;;4.30;96.20;;;;;;5018873;28;20596;-72
2021/12/07 14:29:25;;;;;;;7.90;5.13;;;4.20;96.60;;;;;;5021286;28;20033;-72
2021/12/07 14:31:58;;;;;;;8.70;5.13;;;4.20;96.30;;;;;;5001030;28;20044;-73
2021/12/07 14:34:30;;;;;;;8.00;4.55;;;4.30;97.00;;;;;;5009403;28;20732;-73
2021/12/07 14:37:00;;;;;;;7.95;4.45;;;4.30;96.50;;;;;;5016277;28;20427;-72
2021/12/07 14:39:32;;;;;;;9.27;4.78;;;4.30;96.40;;;;;;5007218;28;21589;-73
2021/12/07 14:42:06;;;;;;;7.82;4.88;;;4.30;96.20;;;;;;5004030;28;20029;-72
2021/12/07 14:44:38;;;;;;;8.75;5.32;;;4.30;96.30;;;;;;5004475;28;20089;-73
2021/12/07 14:47:07;;;;;;;7.20;4.35;;;4.30;96.30;;;;;;5000307;28;20107;-72
2021/12/07 14:49:54;;;;;;;9.43;5.00;;;4.30;96.40;;;;;;5003540;28;20050;-72
2021/12/07 14:52:28;;;;;;;5.97;4.30;;;4.20;96.60;;;;;;5004641;28;20061;-72